Time;durP1;ratioP1;P1;durP2;ratioP2;P2;SDS_P1;SDS_P2;PMS_P1;PMS_P2;Temp;Humidity;BMP_temperature;BMP_pressure;BME280_temperature;BME280_humidity;BME280_pressure;Samples;Min_cycle;Max_cycle;Signal;HPM_P1;HPM_P2
2022/06/25 00:01:27;;;;;;;173.65;159.82;;;20.70;95.20;;;;;;5034490;28;20056;-80
2022/06/25 00:03:55;;;;;;;175.20;161.27;;;20.70;95.30;;;;;;5034511;28;20057;-80
2022/06/25 00:06:22;;;;;;;174.55;160.55;;;20.70;95.30;;;;;;5017560;28;20044;-80
2022/06/25 00:08:50;;;;;;;172.55;158.85;;;20.60;95.30;;;;;;5034364;28;20064;-80
2022/06/25 00:14:06;;;;;;;173.65;159.68;;;20.60;95.50;;;;;;5033849;28;20042;-80
2022/06/25 00:16:35;;;;;;;169.88;156.35;;;20.50;95.40;;;;;;5017864;28;20060;-80
2022/06/25 00:19:03;;;;;;;169.82;155.93;;;20.50;95.30;;;;;;5034109;28;20065;-80
2022/06/25 00:21:31;;;;;;;169.95;156.25;;;20.50;95.40;;;;;;5034221;28;20050;-80
2022/06/25 00:23:58;;;;;;;169.63;155.90;;;20.40;95.50;;;;;;5017706;28;20516;-80
2022/06/25 00:26:25;;;;;;;167.55;153.85;;;20.40;95.40;;;;;;5035354;28;20060;-80
2022/06/25 00:28:52;;;;;;;165.52;151.93;;;20.40;95.50;;;;;;5033699;28;20168;-80
2022/06/25 00:31:19;;;;;;;167.45;153.85;;;20.40;95.80;;;;;;5017674;28;20133;-80
2022/06/25 00:33:47;;;;;;;166.25;152.75;;;20.30;95.70;;;;;;5017708;28;20087;-80
2022/06/25 00:36:14;;;;;;;168.32;154.63;;;20.30;95.80;;;;;;5034063;28;20082;-80
2022/06/25 00:38:41;;;;;;;166.18;152.48;;;20.20;95.90;;;;;;5017237;28;20269;-80
2022/06/25 00:41:09;;;;;;;164.25;150.93;;;20.10;95.80;;;;;;5017445;28;20120;-80
2022/06/25 00:43:38;;;;;;;162.45;149.02;;;20.10;95.80;;;;;;5033380;28;20141;-80
2022/06/25 00:46:06;;;;;;;164.52;151.18;;;20.10;95.70;;;;;;5033947;28;20108;-79
2022/06/25 00:48:33;;;;;;;162.63;149.45;;;20.10;95.80;;;;;;5017292;28;20050;-80
2022/06/25 00:51:05;;;;;;;168.52;155.02;;;20.10;95.90;;;;;;5017526;28;20547;-81
2022/06/25 00:53:33;;;;;;;166.70;153.18;;;20.00;96.00;;;;;;5017453;28;20069;-79
2022/06/25 00:56:02;;;;;;;169.15;155.35;;;20.00;96.00;;;;;;5033917;28;20443;-80
2022/06/25 00:58:32;;;;;;;170.80;156.70;;;19.90;96.10;;;;;;5032953;28;20050;-80
2022/06/25 01:01:00;;;;;;;171.07;157.02;;;19.90;96.20;;;;;;5033967;28;20054;-80
2022/06/25 01:03:28;;;;;;;176.40;161.98;;;19.80;96.30;;;;;;5016817;28;20890;-80
2022/06/25 01:05:55;;;;;;;165.75;152.07;;;19.80;96.30;;;;;;5017135;28;20476;-80
2022/06/25 01:08:24;;;;;;;171.40;157.40;;;19.80;96.40;;;;;;5031308;28;20042;-79
2022/06/25 01:10:51;;;;;;;169.80;155.88;;;19.80;96.50;;;;;;5033440;28;20160;-80
2022/06/25 01:13:21;;;;;;;164.35;150.82;;;19.80;96.50;;;;;;5016621;28;20046;-80
2022/06/25 01:15:48;;;;;;;162.75;149.40;;;19.70;96.50;;;;;;5017060;28;20046;-80
2022/06/25 01:18:15;;;;;;;165.43;151.82;;;19.70;96.50;;;;;;5032798;28;20104;-80
2022/06/25 01:20:43;;;;;;;164.43;150.73;;;19.70;96.60;;;;;;5016118;28;20089;-80
2022/06/25 01:23:12;;;;;;;162.70;149.30;;;19.60;96.50;;;;;;5015518;28;20061;-80
2022/06/25 01:25:40;;;;;;;165.35;151.75;;;19.60;96.80;;;;;;5031188;28;20045;-80
2022/06/25 01:28:08;;;;;;;164.48;150.73;;;19.60;96.60;;;;;;5031112;28;20108;-79
2022/06/25 01:30:36;;;;;;;161.63;148.05;;;19.60;96.60;;;;;;5014862;28;20092;-79
2022/06/25 01:33:07;;;;;;;161.50;147.90;;;19.50;96.60;;;;;;5031330;28;20128;-79
2022/06/25 01:35:34;;;;;;;160.65;147.15;;;19.50;96.60;;;;;;5014490;28;20057;-79
2022/06/25 01:38:02;;;;;;;163.77;150.02;;;19.50;96.60;;;;;;5014236;28;20058;-80
2022/06/25 01:40:33;;;;;;;161.15;147.70;;;19.40;96.60;;;;;;5014101;28;20054;-80
2022/06/25 01:43:00;;;;;;;161.10;147.73;;;19.40;96.60;;;;;;5016580;28;20133;-80
2022/06/25 01:45:28;;;;;;;157.45;144.27;;;19.40;96.60;;;;;;5032708;28;20050;-79
2022/06/25 01:47:55;;;;;;;156.82;143.80;;;19.40;96.60;;;;;;5016440;28;20077;-80
2022/06/25 01:50:22;;;;;;;155.50;142.27;;;19.30;96.60;;;;;;5016313;28;20951;-80
2022/06/25 01:52:52;;;;;;;157.15;144.02;;;19.30;96.60;;;;;;5016758;28;20077;-79
2022/06/25 01:55:20;;;;;;;156.15;143.25;;;19.30;96.60;;;;;;5016650;28;20149;-79
2022/06/25 01:57:50;;;;;;;158.52;145.02;;;19.30;96.60;;;;;;5032605;28;20054;-80
2022/06/25 02:00:22;;;;;;;157.63;144.52;;;19.30;96.50;;;;;;5032610;28;20539;-79
2022/06/25 02:02:55;;;;;;;159.52;146.20;;;19.30;96.40;;;;;;5016269;28;20083;-79
2022/06/25 02:05:56;;;;;;;157.90;144.55;;;19.30;96.40;;;;;;5032611;28;20089;-79
2022/06/25 02:08:13;;;;;;;158.13;144.75;;;19.30;96.40;;;;;;5015545;28;20108;-79
2022/06/25 02:10:40;;;;;;;157.35;144.10;;;19.30;96.40;;;;;;5015621;28;20905;-80
2022/06/25 02:13:09;;;;;;;159.15;144.95;;;19.20;96.40;;;;;;4999555;28;20051;-80
2022/06/25 02:15:37;;;;;;;161.02;147.52;;;19.20;96.40;;;;;;4996101;28;20050;-79
2022/06/25 02:18:05;;;;;;;158.35;144.95;;;19.20;96.50;;;;;;5012329;28;20137;-80
2022/06/25 02:20:33;;;;;;;160.00;146.50;;;19.10;96.50;;;;;;4995627;28;20133;-79
2022/06/25 02:23:00;;;;;;;161.07;147.18;;;19.10;96.60;;;;;;5013402;28;20105;-80
2022/06/25 02:25:27;;;;;;;160.32;146.88;;;19.10;96.60;;;;;;5012204;28;20054;-79
2022/06/25 02:27:54;;;;;;;157.43;144.13;;;19.00;96.70;;;;;;5011805;28;20074;-80
2022/06/25 02:30:22;;;;;;;156.63;143.35;;;19.10;96.70;;;;;;4995564;28;20081;-79
2022/06/25 02:32:49;;;;;;;157.23;143.88;;;19.00;96.70;;;;;;4995797;28;20460;-79
2022/06/25 02:35:20;;;;;;;155.00;142.00;;;19.00;96.80;;;;;;5013273;28;20058;-79
2022/06/25 02:37:47;;;;;;;155.65;142.25;;;19.00;96.80;;;;;;4995864;28;20054;-79
2022/06/25 02:40:16;;;;;;;154.30;141.38;;;19.00;96.80;;;;;;4995803;28;20081;-80
2022/06/25 02:42:46;;;;;;;156.65;143.35;;;18.90;96.80;;;;;;4995460;28;20133;-79
2022/06/25 02:45:13;;;;;;;157.40;144.13;;;18.90;96.80;;;;;;4995617;28;20144;-79
2022/06/25 02:47:48;;;;;;;156.60;143.30;;;18.90;96.90;;;;;;4996689;28;20050;-80
2022/06/25 02:50:15;;;;;;;156.55;143.35;;;18.80;96.90;;;;;;4996199;28;20762;-79
2022/06/25 02:52:43;;;;;;;156.20;143.18;;;18.80;97.00;;;;;;5012081;28;20053;-80
2022/06/25 02:55:15;;;;;;;153.95;140.77;;;18.80;97.00;;;;;;5011801;28;20161;-79
2022/06/25 03:00:40;;;;;;;157.18;143.88;;;18.80;97.10;;;;;;5011933;28;20444;-79
2022/06/25 03:03:10;;;;;;;156.75;143.35;;;18.70;97.10;;;;;;4995255;28;20047;-79
2022/06/25 03:05:39;;;;;;;157.80;144.23;;;18.70;97.10;;;;;;4995382;28;20104;-79
2022/06/25 03:08:06;;;;;;;158.15;144.45;;;18.70;97.10;;;;;;4995477;28;20145;-80
2022/06/25 03:10:33;;;;;;;155.98;142.57;;;18.70;97.10;;;;;;5012047;28;20085;-79
2022/06/25 03:13:00;;;;;;;158.32;144.75;;;18.70;97.20;;;;;;4995577;28;20134;-79
2022/06/25 03:15:29;;;;;;;156.63;142.90;;;18.70;97.20;;;;;;4995771;28;20054;-80
2022/06/25 03:17:57;;;;;;;156.95;143.48;;;18.70;97.20;;;;;;5012390;28;20081;-79
2022/06/25 03:20:52;;;;;;;156.73;143.23;;;18.70;97.20;;;;;;5031217;28;20065;-79
2022/06/25 03:23:20;;;;;;;156.35;142.85;;;18.70;97.20;;;;;;5015130;28;20137;-80
2022/06/25 03:25:49;;;;;;;159.93;146.00;;;18.60;97.20;;;;;;5014929;28;20571;-79
2022/06/25 03:28:19;;;;;;;158.38;144.77;;;18.60;97.30;;;;;;5014807;28;20133;-79
2022/06/25 03:30:46;;;;;;;157.95;144.07;;;18.60;97.30;;;;;;5014990;28;20050;-79
2022/06/25 03:33:14;;;;;;;160.32;146.52;;;18.60;97.30;;;;;;5014695;28;20436;-79
2022/06/25 03:35:47;;;;;;;160.27;146.57;;;18.60;97.40;;;;;;5014467;28;20100;-79
2022/06/25 03:38:19;;;;;;;161.27;147.27;;;18.60;97.40;;;;;;5014847;28;20651;-79
2022/06/25 03:40:47;;;;;;;160.07;146.23;;;18.60;97.40;;;;;;5014801;28;20073;-79
2022/06/25 03:43:17;;;;;;;161.55;147.45;;;18.60;97.50;;;;;;5014874;28;20050;-79
2022/06/25 03:45:46;;;;;;;156.85;143.15;;;18.60;97.40;;;;;;5015282;28;20057;-79
2022/06/25 03:48:13;;;;;;;168.77;154.20;;;18.60;97.50;;;;;;5033019;28;20061;-79
2022/06/25 03:51:06;;;;;;;157.77;143.77;;;18.60;97.50;;;;;;5033437;28;20149;-80
2022/06/25 03:53:35;;;;;;;160.30;146.52;;;18.60;97.50;;;;;;5034564;28;20136;-79
2022/06/25 03:56:02;;;;;;;161.43;147.38;;;18.60;97.60;;;;;;5018164;28;20054;-79
2022/06/25 03:58:36;;;;;;;161.48;147.07;;;18.50;97.50;;;;;;5017888;28;20096;-79
2022/06/25 04:01:03;;;;;;;162.82;148.63;;;18.50;97.50;;;;;;5018058;28;20472;-80
2022/06/25 04:03:30;;;;;;;159.05;144.90;;;18.50;97.60;;;;;;5017534;28;20796;-79
2022/06/25 04:06:05;;;;;;;161.48;146.65;;;18.50;97.60;;;;;;5018134;28;20058;-79
2022/06/25 04:08:40;;;;;;;159.57;144.88;;;18.50;97.60;;;;;;5035589;28;20053;-79
2022/06/25 04:11:10;;;;;;;158.95;144.55;;;18.50;97.70;;;;;;5034277;28;20049;-79
2022/06/25 04:13:43;;;;;;;162.63;147.70;;;18.50;97.70;;;;;;5017903;28;20141;-79
2022/06/25 04:16:12;;;;;;;159.32;144.55;;;18.50;97.70;;;;;;5034254;28;20058;-79
2022/06/25 04:18:39;;;;;;;155.80;141.45;;;18.50;97.70;;;;;;5017203;28;20517;-79
2022/06/25 04:21:07;;;;;;;155.85;141.88;;;18.50;97.80;;;;;;5032041;28;20050;-79
2022/06/25 04:23:34;;;;;;;153.48;139.73;;;18.50;97.80;;;;;;5017829;28;20050;-79
2022/06/25 04:26:03;;;;;;;156.23;141.80;;;18.40;97.80;;;;;;5017413;28;20054;-79
2022/06/25 04:31:29;;;;;;;153.48;139.70;;;18.40;97.90;;;;;;5017662;28;20132;-79
2022/06/25 04:33:56;;;;;;;154.55;140.75;;;18.40;97.90;;;;;;5017369;28;20603;-79
2022/06/25 04:36:23;;;;;;;155.82;141.82;;;18.50;98.00;;;;;;5017140;28;20046;-79
2022/06/25 04:38:53;;;;;;;153.20;139.40;;;18.40;98.00;;;;;;5017058;28;20066;-79
2022/06/25 04:41:21;;;;;;;159.52;144.82;;;18.40;98.00;;;;;;5035028;28;20076;-79
2022/06/25 04:43:52;;;;;;;161.43;146.52;;;18.40;98.00;;;;;;5034115;28;20069;-79
2022/06/25 04:46:23;;;;;;;159.80;145.13;;;18.40;98.00;;;;;;5017415;28;20121;-79
2022/06/25 04:48:52;;;;;;;159.15;144.77;;;18.40;98.10;;;;;;5033560;28;20056;-79
2022/06/25 04:51:28;;;;;;;156.27;142.23;;;18.40;98.10;;;;;;5017195;28;20049;-79
2022/06/25 04:53:58;;;;;;;155.77;141.70;;;18.40;98.10;;;;;;5012547;28;20528;-79
2022/06/25 04:56:32;;;;;;;156.50;142.50;;;18.50;98.20;;;;;;5012912;28;20046;-79
2022/06/25 04:59:00;;;;;;;153.98;140.27;;;18.50;98.20;;;;;;5011554;28;20052;-78
2022/06/25 05:01:45;;;;;;;154.05;139.98;;;18.50;98.20;;;;;;5031840;28;20137;-78
2022/06/25 05:04:13;;;;;;;158.27;143.77;;;18.50;98.20;;;;;;5029496;28;20054;-78
2022/06/25 05:06:40;;;;;;;158.38;143.93;;;18.50;98.30;;;;;;5048763;28;20126;-78
2022/06/25 05:09:07;;;;;;;153.88;139.95;;;18.50;98.30;;;;;;5048860;28;20076;-78
2022/06/25 05:11:37;;;;;;;153.77;139.68;;;18.50;98.20;;;;;;5015951;28;20359;-78
2022/06/25 05:14:04;;;;;;;154.88;141.00;;;18.50;98.30;;;;;;5048857;28;20516;-78
2022/06/25 05:16:33;;;;;;;155.45;141.50;;;18.50;98.30;;;;;;5012456;28;20065;-79
2022/06/25 05:19:01;;;;;;;155.15;140.82;;;18.60;98.40;;;;;;5013994;28;20084;-77
2022/06/25 05:21:29;;;;;;;152.95;139.18;;;18.60;98.40;;;;;;5024784;28;20042;-78
2022/06/25 05:23:59;;;;;;;154.88;140.93;;;18.50;98.40;;;;;;5032658;28;20049;-78
2022/06/25 05:26:26;;;;;;;154.27;140.30;;;18.60;98.50;;;;;;5031812;28;20061;-78
2022/06/25 05:28:54;;;;;;;155.98;141.93;;;18.60;98.40;;;;;;5014921;28;20128;-78
2022/06/25 05:31:24;;;;;;;151.10;137.18;;;18.60;98.50;;;;;;5030196;28;20050;-78
2022/06/25 05:33:53;;;;;;;151.90;138.15;;;18.60;98.50;;;;;;5011410;28;20059;-78
2022/06/25 05:36:20;;;;;;;154.10;139.95;;;18.60;98.60;;;;;;4996704;28;20082;-78
2022/06/25 05:38:47;;;;;;;151.10;137.20;;;18.70;98.60;;;;;;5012688;28;20050;-78
2022/06/25 05:41:14;;;;;;;152.77;138.65;;;18.70;98.50;;;;;;5012827;28;20923;-78
2022/06/25 05:43:41;;;;;;;154.98;141.02;;;18.70;98.50;;;;;;5028976;28;20050;-78
2022/06/25 05:46:09;;;;;;;154.07;140.10;;;18.80;98.40;;;;;;5012452;28;20057;-78
2022/06/25 05:48:36;;;;;;;153.75;139.75;;;18.80;98.40;;;;;;5020484;28;20073;-78
2022/06/25 05:51:03;;;;;;;154.25;140.32;;;18.80;98.40;;;;;;5030885;28;20050;-78
2022/06/25 05:53:30;;;;;;;153.65;139.68;;;18.90;98.30;;;;;;5014630;28;20060;-79
2022/06/25 05:56:22;;;;;;;155.02;141.20;;;18.90;98.30;;;;;;5030624;28;20500;-78
2022/06/25 05:58:49;;;;;;;152.68;138.88;;;18.90;98.30;;;;;;5029359;28;20132;-79
2022/06/25 06:01:18;;;;;;;155.18;140.98;;;18.90;98.20;;;;;;5020656;28;20047;-78
2022/06/25 06:03:45;;;;;;;151.80;137.93;;;19.00;98.20;;;;;;5025387;28;20105;-77
2022/06/25 06:06:11;;;;;;;153.15;139.18;;;19.10;98.10;;;;;;5032333;28;20146;-78
2022/06/25 06:08:38;;;;;;;152.43;138.57;;;19.10;98.00;;;;;;5026039;28;20058;-78
2022/06/25 06:11:05;;;;;;;150.95;137.25;;;19.10;98.00;;;;;;5018453;28;20097;-78
2022/06/25 06:13:32;;;;;;;151.15;137.38;;;19.20;97.80;;;;;;5029104;28;20047;-78
2022/06/25 06:15:59;;;;;;;152.48;138.38;;;19.20;97.70;;;;;;5020884;28;20128;-78
2022/06/25 06:18:27;;;;;;;154.57;140.23;;;19.20;97.70;;;;;;5030926;28;20479;-78
2022/06/25 06:20:54;;;;;;;157.73;143.15;;;19.20;97.60;;;;;;5033040;28;20136;-78
2022/06/25 06:23:21;;;;;;;156.82;142.70;;;19.30;97.50;;;;;;5007266;28;20058;-78
2022/06/25 06:25:48;;;;;;;163.80;148.70;;;19.30;97.50;;;;;;5032744;28;20052;-78
2022/06/25 06:28:16;;;;;;;154.63;140.40;;;19.30;97.40;;;;;;4939034;28;20043;-78
2022/06/25 06:30:43;;;;;;;155.23;141.02;;;19.40;97.30;;;;;;5006349;28;20085;-77
2022/06/25 06:33:10;;;;;;;153.20;139.13;;;19.50;97.00;;;;;;5017476;28;20050;-77
2022/06/25 06:35:39;;;;;;;160.07;145.73;;;19.50;97.00;;;;;;5022467;28;20164;-77
2022/06/25 06:38:43;;;;;;;154.38;140.35;;;19.60;96.80;;;;;;5019875;28;20069;-78
2022/06/25 06:41:10;;;;;;;152.13;138.35;;;19.60;96.70;;;;;;5031844;28;20054;-76
2022/06/25 06:43:37;;;;;;;152.68;138.98;;;19.60;96.80;;;;;;5032540;28;20077;-79
2022/06/25 06:46:04;;;;;;;155.65;141.45;;;19.70;96.70;;;;;;5015021;28;20121;-79
2022/06/25 06:48:31;;;;;;;153.63;139.95;;;19.70;96.60;;;;;;5032513;28;20440;-78
2022/06/25 06:50:59;;;;;;;151.40;137.85;;;19.80;96.30;;;;;;5031230;28;20172;-83
2022/06/25 06:53:26;;;;;;;151.68;138.07;;;19.90;96.20;;;;;;5032612;28;20125;-80
2022/06/25 06:55:53;;;;;;;158.60;144.20;;;19.90;96.40;;;;;;5014817;28;20058;-79
2022/06/25 06:58:20;;;;;;;157.38;143.23;;;19.90;96.40;;;;;;5048002;28;20504;-68
2022/06/25 07:00:47;;;;;;;156.20;141.88;;;19.90;96.30;;;;;;5047194;28;20141;-69
2022/06/25 07:03:14;;;;;;;154.73;140.55;;;20.00;96.30;;;;;;5031235;28;20084;-82
2022/06/25 07:05:41;;;;;;;160.18;146.27;;;20.00;96.30;;;;;;5030688;28;20145;-82
2022/06/25 07:08:21;;;;;;;154.38;140.98;;;20.20;96.20;;;;;;5027636;28;20054;-82
2022/06/25 07:10:48;;;;;;;158.02;143.90;;;20.20;96.10;;;;;;5015288;28;20046;-82
2022/06/25 07:13:15;;;;;;;156.70;143.10;;;20.20;96.00;;;;;;5020366;28;20137;-81
2022/06/25 07:15:42;;;;;;;156.93;143.55;;;20.30;96.00;;;;;;5027611;28;20046;-81
2022/06/25 07:18:09;;;;;;;156.00;142.30;;;20.30;95.90;;;;;;5030408;28;20085;-82
2022/06/25 07:20:36;;;;;;;155.25;141.95;;;20.40;95.80;;;;;;4995102;28;20142;-82
2022/06/25 07:23:03;;;;;;;160.43;146.13;;;20.40;95.60;;;;;;5019793;28;20542;-82
2022/06/25 07:25:32;;;;;;;161.63;147.50;;;20.40;95.30;;;;;;5034175;28;20104;-80
2022/06/25 07:27:59;;;;;;;161.70;147.07;;;20.50;95.50;;;;;;5027900;28;20046;-76
2022/06/25 07:30:26;;;;;;;179.80;163.90;;;20.50;95.30;;;;;;5031798;28;20080;-76
2022/06/25 07:32:53;;;;;;;158.75;144.77;;;20.60;95.30;;;;;;5028648;28;21524;-76
2022/06/25 07:35:20;;;;;;;159.13;145.15;;;20.60;94.90;;;;;;5047735;28;20060;-77
2022/06/25 07:37:47;;;;;;;200.60;182.50;;;20.60;95.00;;;;;;5032862;28;20586;-76
2022/06/25 07:40:22;;;;;;;206.40;187.77;;;20.70;95.00;;;;;;5037343;28;20089;-83
2022/06/25 07:42:50;;;;;;;180.88;164.65;;;20.70;95.10;;;;;;5033446;28;20520;-80
2022/06/25 07:45:17;;;;;;;166.60;151.77;;;20.80;94.90;;;;;;5024051;28;20058;-80
2022/06/25 07:47:44;;;;;;;155.93;142.40;;;20.80;94.70;;;;;;5014516;28;20047;-80
2022/06/25 07:52:55;;;;;;;155.35;141.85;;;20.90;95.00;;;;;;5029517;28;20057;-75
2022/06/25 07:55:22;;;;;;;158.18;144.32;;;20.90;94.40;;;;;;5022290;28;20054;-75
2022/06/25 07:57:50;;;;;;;156.13;142.48;;;20.90;94.50;;;;;;5019510;28;20058;-78
2022/06/25 08:00:18;;;;;;;152.63;138.93;;;21.00;94.30;;;;;;5020336;28;20136;-77
2022/06/25 08:02:45;;;;;;;181.35;165.25;;;21.00;94.10;;;;;;4997409;28;20181;-78
2022/06/25 08:05:12;;;;;;;159.75;146.05;;;21.10;93.90;;;;;;5015202;28;20058;-78
2022/06/25 08:07:38;;;;;;;180.57;165.00;;;21.20;93.60;;;;;;5013077;28;20053;-78
2022/06/25 08:10:06;;;;;;;164.75;150.55;;;21.20;93.40;;;;;;5011565;28;20042;-78
2022/06/25 08:12:33;;;;;;;187.15;171.40;;;21.20;93.30;;;;;;5011132;28;20059;-78
2022/06/25 08:15:01;;;;;;;167.80;153.60;;;21.30;93.30;;;;;;5011088;28;20073;-78
2022/06/25 08:17:29;;;;;;;167.50;153.52;;;21.30;93.30;;;;;;5010818;28;20098;-78
2022/06/25 08:19:55;;;;;;;160.75;147.60;;;21.30;93.00;;;;;;5013248;28;20145;-78
2022/06/25 08:22:23;;;;;;;164.38;150.93;;;21.30;92.80;;;;;;5013691;28;20046;-78
2022/06/25 08:24:49;;;;;;;163.85;149.77;;;21.40;92.70;;;;;;5014173;28;20163;-78
2022/06/25 08:27:17;;;;;;;165.68;152.02;;;21.40;92.50;;;;;;5015449;28;20145;-78
2022/06/25 08:29:43;;;;;;;173.45;159.05;;;21.50;92.10;;;;;;5015319;28;20545;-77
2022/06/25 08:32:12;;;;;;;181.85;166.30;;;21.50;92.40;;;;;;5030257;28;20157;-78
2022/06/25 08:34:39;;;;;;;170.50;156.52;;;21.50;92.50;;;;;;5014949;28;20149;-78
2022/06/25 08:37:22;;;;;;;171.95;158.02;;;21.60;92.60;;;;;;5129653;27;20838;-78
2022/06/25 08:39:49;;;;;;;174.55;160.52;;;21.70;91.90;;;;;;5129607;27;20134;-79
2022/06/25 08:42:16;;;;;;;172.10;158.18;;;21.70;91.90;;;;;;5131034;27;20066;-78
2022/06/25 08:44:43;;;;;;;198.02;181.50;;;21.80;91.50;;;;;;5129965;27;20573;-78
2022/06/25 08:47:11;;;;;;;170.73;156.30;;;21.80;91.50;;;;;;5112366;27;20062;-78
2022/06/25 08:49:39;;;;;;;174.07;159.85;;;21.80;91.60;;;;;;5129870;27;20051;-78
2022/06/25 08:52:07;;;;;;;162.75;149.48;;;21.90;91.50;;;;;;5129326;27;20062;-78
2022/06/25 08:54:37;;;;;;;163.55;149.82;;;21.90;91.40;;;;;;5112454;27;20531;-78
2022/06/25 08:57:04;;;;;;;173.88;159.48;;;21.90;91.50;;;;;;5130231;27;20134;-78
2022/06/25 08:59:31;;;;;;;162.95;149.15;;;21.90;91.40;;;;;;5130663;27;20330;-78
2022/06/25 09:01:58;;;;;;;164.32;150.95;;;21.90;91.60;;;;;;5130870;27;20052;-78
2022/06/25 09:04:26;;;;;;;168.50;154.73;;;21.90;91.30;;;;;;5129563;27;20612;-78
2022/06/25 09:09:47;;;;;;;170.82;157.23;;;21.90;91.90;;;;;;5048927;28;20158;-79
2022/06/25 09:12:15;;;;;;;163.07;150.10;;;21.90;92.30;;;;;;5050794;28;20499;-79
2022/06/25 09:14:42;;;;;;;162.95;149.77;;;21.90;91.70;;;;;;5050397;28;20132;-78
2022/06/25 09:17:12;;;;;;;167.70;154.13;;;22.00;91.10;;;;;;5050297;28;20140;-78
2022/06/25 09:19:41;;;;;;;173.70;160.00;;;22.00;90.90;;;;;;5068283;28;20466;-78
2022/06/25 09:22:09;;;;;;;165.85;152.55;;;22.00;91.50;;;;;;5068461;28;20072;-78
2022/06/25 09:24:43;;;;;;;177.23;162.77;;;22.10;91.90;;;;;;5076344;28;20112;-78
2022/06/25 09:27:10;;;;;;;171.00;157.65;;;22.10;91.70;;;;;;5048270;28;20074;-78
2022/06/25 09:29:39;;;;;;;166.18;153.00;;;22.20;91.20;;;;;;5046972;28;20053;-78
2022/06/25 09:32:06;;;;;;;166.50;153.23;;;22.30;91.00;;;;;;5046896;28;20060;-78
2022/06/25 09:34:34;;;;;;;170.82;157.13;;;22.30;90.70;;;;;;5030294;28;20512;-78
2022/06/25 09:37:20;;;;;;;188.90;174.00;;;22.40;90.20;;;;;;5047772;28;20054;-78
2022/06/25 09:39:51;;;;;;;167.98;154.77;;;22.40;90.40;;;;;;5066473;28;20053;-79
2022/06/25 09:42:23;;;;;;;170.20;157.00;;;22.50;90.00;;;;;;5050196;28;20056;-79
2022/06/25 09:44:57;;;;;;;169.77;156.43;;;22.50;90.10;;;;;;5049929;28;20119;-78
2022/06/25 09:47:25;;;;;;;173.50;160.10;;;22.60;90.40;;;;;;5061732;28;20054;-78
2022/06/25 09:50:04;;;;;;;176.13;162.32;;;22.60;90.40;;;;;;5055160;28;20060;-78
2022/06/25 09:52:31;;;;;;;174.85;161.07;;;22.70;89.40;;;;;;5054473;28;20085;-78
2022/06/25 09:55:00;;;;;;;173.20;159.38;;;22.80;88.60;;;;;;5053115;28;20077;-79
2022/06/25 09:57:28;;;;;;;159.00;146.10;;;22.90;89.10;;;;;;5036302;28;20578;-78
2022/06/25 09:59:56;;;;;;;156.32;143.52;;;22.90;88.60;;;;;;5036644;28;20053;-78
2022/06/25 10:02:28;;;;;;;164.50;151.80;;;22.90;88.50;;;;;;5054545;28;20140;-78
2022/06/25 10:05:01;;;;;;;158.15;145.55;;;23.00;89.00;;;;;;5053093;28;20539;-78
2022/06/25 10:10:15;;;;;;;157.13;144.50;;;23.00;86.80;;;;;;5053553;28;20510;-78
2022/06/25 10:12:42;;;;;;;159.63;146.82;;;23.10;87.00;;;;;;5036485;28;20053;-78
2022/06/25 10:15:10;;;;;;;169.55;156.45;;;23.10;86.80;;;;;;5054335;28;20077;-78
2022/06/25 10:17:37;;;;;;;161.85;148.85;;;23.10;86.80;;;;;;5035897;28;20050;-79
2022/06/25 10:20:06;;;;;;;159.50;146.30;;;23.10;85.00;;;;;;5052649;28;20120;-79
2022/06/25 10:22:33;;;;;;;158.90;145.95;;;23.20;84.50;;;;;;5054230;28;20091;-79
2022/06/25 10:25:01;;;;;;;158.88;146.23;;;23.20;82.70;;;;;;5019614;28;20056;-78
2022/06/25 10:27:29;;;;;;;156.95;144.55;;;23.20;81.90;;;;;;5036122;28;20133;-79
2022/06/25 10:29:56;;;;;;;159.95;147.07;;;23.20;82.60;;;;;;5035710;28;20545;-79
2022/06/25 10:32:27;;;;;;;156.80;144.23;;;23.20;83.10;;;;;;5052619;28;20058;-79
2022/06/25 10:34:58;;;;;;;168.43;155.57;;;23.20;82.20;;;;;;5051234;28;20049;-79
2022/06/25 10:37:25;;;;;;;163.52;150.75;;;23.20;82.20;;;;;;5035683;28;20133;-79
2022/06/25 10:39:53;;;;;;;160.27;147.60;;;23.20;82.40;;;;;;5052307;28;20495;-78
2022/06/25 10:45:56;;;;;;;155.45;142.95;;;23.30;83.00;;;;;;5052141;28;20056;-79
2022/06/25 10:48:23;;;;;;;159.73;147.05;;;23.30;81.30;;;;;;5053343;28;20148;-79
2022/06/25 10:50:51;;;;;;;163.25;150.45;;;23.40;80.80;;;;;;5052459;28;20057;-79
2022/06/25 10:53:20;;;;;;;160.23;147.40;;;23.40;81.50;;;;;;5053371;28;20175;-79
2022/06/25 10:56:16;;;;;;;160.85;147.93;;;23.40;81.60;;;;;;5035558;28;20120;-79
2022/06/25 10:58:47;;;;;;;160.00;147.20;;;23.40;81.60;;;;;;5052054;28;20054;-79
2022/06/25 11:01:26;;;;;;;161.07;148.18;;;23.40;80.70;;;;;;5019209;28;20045;-79
2022/06/25 11:03:59;;;;;;;158.32;145.32;;;23.40;80.80;;;;;;5035942;28;20495;-79
2022/06/25 11:06:29;;;;;;;162.00;149.10;;;23.30;80.60;;;;;;5052326;28;20049;-79
2022/06/25 11:09:04;;;;;;;164.52;151.73;;;23.40;79.70;;;;;;5033337;28;20050;-79
2022/06/25 11:11:33;;;;;;;158.10;145.30;;;23.30;80.20;;;;;;5019172;28;20049;-79
2022/06/25 11:14:03;;;;;;;160.38;147.52;;;23.30;80.50;;;;;;5035518;28;20073;-79
2022/06/25 11:16:30;;;;;;;161.40;148.45;;;23.30;80.20;;;;;;5018929;28;20076;-80
2022/06/25 11:18:59;;;;;;;169.77;155.73;;;23.30;80.70;;;;;;5035063;28;20115;-80
2022/06/25 11:21:28;;;;;;;164.60;151.70;;;23.20;80.90;;;;;;5035318;28;20052;-79
2022/06/25 11:24:06;;;;;;;168.20;154.82;;;23.30;80.90;;;;;;5035373;28;20057;-79
2022/06/25 11:29:22;;;;;;;165.55;152.25;;;23.30;81.90;;;;;;5051572;28;20060;-79
2022/06/25 11:31:50;;;;;;;166.45;153.50;;;23.20;81.40;;;;;;5035118;28;20060;-79
2022/06/25 11:34:18;;;;;;;170.63;157.05;;;23.30;81.60;;;;;;5034978;28;20144;-79
2022/06/25 11:36:46;;;;;;;166.52;153.43;;;23.30;82.70;;;;;;5051371;28;20049;-79
2022/06/25 11:39:16;;;;;;;165.18;152.13;;;23.30;82.70;;;;;;5034554;28;20148;-79
2022/06/25 11:41:52;;;;;;;164.75;151.65;;;23.30;82.10;;;;;;5051154;28;20052;-80
2022/06/25 11:44:20;;;;;;;168.20;154.90;;;23.30;81.70;;;;;;5052590;28;20124;-79
2022/06/25 11:46:49;;;;;;;164.85;151.75;;;23.30;81.80;;;;;;5052934;28;20471;-79
2022/06/25 11:49:18;;;;;;;167.10;153.95;;;23.30;82.20;;;;;;5034697;28;20124;-79
2022/06/25 11:51:46;;;;;;;167.40;154.30;;;23.30;82.40;;;;;;5052624;28;20049;-79
2022/06/25 11:54:13;;;;;;;165.40;152.30;;;23.30;82.00;;;;;;5034796;28;20140;-79
2022/06/25 11:56:48;;;;;;;167.93;154.70;;;23.30;82.30;;;;;;5052666;28;20103;-79
2022/06/25 11:59:15;;;;;;;169.75;156.10;;;23.30;82.60;;;;;;5050829;28;20057;-79
2022/06/25 12:01:49;;;;;;;176.15;162.57;;;23.20;83.30;;;;;;5018436;28;20055;-79
2022/06/25 12:04:16;;;;;;;169.32;156.00;;;23.20;83.80;;;;;;5052545;28;20099;-79
2022/06/25 12:06:43;;;;;;;174.75;161.63;;;23.20;85.00;;;;;;5051003;28;20054;-79
2022/06/25 12:09:10;;;;;;;173.18;159.98;;;23.10;85.60;;;;;;5034441;28;20046;-79
2022/06/25 12:11:37;;;;;;;173.70;160.38;;;23.20;86.10;;;;;;5034616;28;20059;-79
2022/06/25 12:14:05;;;;;;;177.18;163.18;;;23.20;86.60;;;;;;5033062;28;20049;-79
2022/06/25 12:16:44;;;;;;;170.10;156.73;;;23.10;87.00;;;;;;5034479;28;20053;-79
2022/06/25 12:19:11;;;;;;;174.70;160.90;;;23.10;87.60;;;;;;5034481;28;20547;-79
2022/06/25 12:21:38;;;;;;;176.65;162.75;;;23.00;88.50;;;;;;5034570;28;20049;-79
2022/06/25 12:24:06;;;;;;;180.25;166.13;;;23.00;88.80;;;;;;5052217;28;20053;-79
2022/06/25 12:26:34;;;;;;;172.23;159.05;;;23.00;88.80;;;;;;5052148;28;20053;-79
2022/06/25 12:29:14;;;;;;;165.75;152.70;;;22.90;89.40;;;;;;5034021;28;20848;-79
2022/06/25 12:31:42;;;;;;;170.57;157.30;;;22.90;89.20;;;;;;5052449;28;20077;-79
2022/06/25 12:34:10;;;;;;;171.82;158.52;;;22.90;89.20;;;;;;5051105;28;20124;-79
2022/06/25 12:36:39;;;;;;;175.95;162.52;;;22.80;89.30;;;;;;5052096;28;20065;-79
2022/06/25 12:39:29;;;;;;;176.55;163.18;;;22.80;90.00;;;;;;5034218;28;20484;-79
2022/06/25 12:41:56;;;;;;;175.18;161.88;;;22.80;89.90;;;;;;5052124;28;20057;-79